• Join FlightAware (Why Join?)
  • Login
  • US Flag 
 
01:25AM EST


 

Airport Tracker/Info


-or-


 

Live Flight TrackerFlight Track Log ✈ N4824K ✈ 09-Aug-2014 ✈ KRAS - 95F

Flight Track Log - Related Links

Times and Time Zones

All times are in EDT time to prevent confusion due to time zone crossing. See the N4824K flight status page for this flight to view local times or setup timezone preferences in your user account.

Time Position Orientation Groundspeed Altitude Reporting Facility
EDT Latitude Longitude Course Direction KTS MPH feet Rate Location/Type
12:17PM 27.8425 -97.0572 360° North 129 148 1,500  Level Houston Center
12:19PM 27.9008 -97.0569 360° North 132 152 2,500 600 Climbing Houston Center
12:20PM 27.9422 -97.0569 360° North 139 160 3,100 480 Climbing Houston Center
12:21PM 27.9842 -97.0581 359° North 145 167 3,600 420 Climbing Houston Center
12:22PM 28.0289 -97.0606 357° North 153 176 4,000 420 Climbing Houston Center
12:23PM 28.0736 -97.0622 358° North 155 178 4,500 420 Climbing Houston Center
12:24PM 28.1064 -97.0628 359° North 157 181 4,800 360 Climbing Houston Center
12:24PM 28.1183 -97.0636 356° North 156 180 4,900 360 Climbing Houston Center
12:25PM 28.1675 -97.0653 358° North 157 181 5,300 420 Climbing Houston Center
12:26PM 28.2133 -97.0661 359° North 161 185 5,800 360 Climbing Houston Center
12:27PM 28.2597 -97.0686 357° North 161 185 6,100 300 Climbing Houston Center
12:28PM 28.2806 -97.0236 62° Northeast 159 183 6,500 360 Climbing Houston Center
12:29PM 28.3053 -96.9828 55° Northeast 158 182 6,900 420 Climbing Houston Center
12:30PM 28.3319 -96.9436 52° Northeast 158 182 7,400 420 Climbing Houston Center
12:31PM 28.3572 -96.9036 54° Northeast 157 181 7,800 480 Climbing Houston Center
12:32PM 28.3822 -96.8639 54° Northeast 156 180 8,400 480 Climbing Houston Center
12:33PM 28.4139 -96.8192 51° Northeast 156 180 8,800 300 Climbing Houston Center
12:34PM 28.4453 -96.7869 42° Northeast 155 178 9,100 240 Climbing Houston Center
12:35PM 28.4908 -96.7886 358° North 160 184 9,400 300 Climbing Houston Center
12:36PM 28.5358 -96.7922 356° North 162 186 9,800 360 Climbing Houston Center
12:37PM 28.5789 -96.7933 359° North 159 183 10,200 360 Climbing Houston Center
12:38PM 28.6303 -96.7919 North 157 181 10,600 300 Climbing Houston Center
12:39PM 28.6728 -96.7914 North 156 180 10,900 360 Climbing Houston Center
12:40PM 28.7136 -96.7894 North 150 173 11,400 420 Climbing Houston Center
12:41PM 28.7544 -96.7878 North 149 171 11,800 300 Climbing Houston Center
12:42PM 28.7947 -96.7850 North 149 171 12,100 300 Climbing Houston Center
12:44PM 28.8369 -96.7831 North 150 173 12,500 300 Climbing Houston Center
12:45PM 28.8867 -96.7803 North 149 171 12,800 360 Climbing Houston Center
12:46PM 28.9275 -96.7789 North 147 169 13,300 420 Climbing Houston Center
12:47PM 28.9683 -96.7789 360° North 147 169 13,700 360 Climbing Houston Center
12:48PM 29.0072 -96.7772 North 144 166 14,100 360 Climbing Houston Center
12:49PM 29.0456 -96.7764 North 141 162 14,500 360 Climbing Houston Center
12:50PM 29.0911 -96.7733 North 138 159 14,900 240 Climbing Houston Center
12:51PM 29.1292 -96.7717 North 138 159 15,100 60 Climbing Houston Center
12:52PM 29.1694 -96.7694 North 139 160 15,100  Level Houston Center
12:53PM 29.2111 -96.7669 North 146 168 15,100  Level Houston Center
12:54PM 29.2558 -96.7658 North 155 178 15,100  Level Houston Center
12:55PM 29.3097 -96.7636 North 159 183 15,100  Level Houston Center
12:56PM 29.3542 -96.7625 North 160 184 15,100  Level Houston Center
12:57PM 29.3989 -96.7597 North 160 184 15,100  Level Houston Center
12:58PM 29.4447 -96.7572 North 161 185 15,100  Level Houston Center
12:59PM 29.4875 -96.7578 359° North 160 184 15,100  Level Houston Center
01:00PM 29.5425 -96.7542 North 161 185 15,100  Level Houston Center
01:01PM 29.5872 -96.7533 North 161 185 15,100  Level Houston Center
01:02PM 29.6319 -96.7514 North 161 185 15,100  Level Houston Center
01:03PM 29.6769 -96.7494 North 161 185 15,100  Level Houston Center
01:04PM 29.7222 -96.7486 North 161 185 15,100  Level Houston Center
01:05PM 29.7753 -96.7461 North 158 182 15,100  Level Houston Center
01:06PM 29.8203 -96.7444 North 159 183 15,100  Level Houston Center
01:07PM 29.8644 -96.7422 North 159 183 15,100  Level Houston Center
01:08PM 29.9103 -96.7403 North 161 185 15,100  Level Houston Center
01:09PM 29.9544 -96.7381 North 160 184 15,100  Level Houston Center
01:10PM 29.9981 -96.7356 North 159 183 15,100  Level Houston Center
01:11PM 30.0519 -96.7344 North 160 184 15,100  Level Houston Center
01:13PM 30.0969 -96.7319 North 160 184 15,100  Level Houston Center
01:14PM 30.1403 -96.7311 North 161 185 15,100  Level Houston Center
01:15PM 30.1847 -96.7289 North 161 185 15,100  Level Houston Center
01:16PM 30.2292 -96.7278 North 161 185 15,100  Level Houston Center
01:17PM 30.2825 -96.7250 North 160 184 15,100  Level Houston Center
01:18PM 30.3297 -96.7228 North 163 188 15,100  Level Houston Center
01:19PM 30.3756 -96.7189 North 164 189 15,100  Level Houston Center
01:20PM 30.4211 -96.7200 359° North 164 189 15,100  Level Houston Center
01:21PM 30.4672 -96.7167 North 164 189 15,100  Level Houston Center
01:22PM 30.5214 -96.7150 North 164 189 15,100  Level Houston Center
01:23PM 30.5675 -96.7131 North 164 189 15,100  Level Houston Center
01:24PM 30.6147 -96.7103 North 166 191 15,100  Level Houston Center
01:25PM 30.6614 -96.7089 North 166 191 15,100  Level Houston Center
01:26PM 30.7072 -96.7072 North 166 191 15,100  Level Houston Center
01:27PM 30.7547 -96.7050 North 167 192 15,100  Level Houston Center
01:28PM 30.8106 -96.7022 North 167 192 15,100  Level Houston Center
01:29PM 30.8575 -96.7017 North 167 192 15,100  Level Houston Center
01:30PM 30.9036 -96.6978 North 167 192 15,100  Level Houston Center
01:31PM 30.9494 -96.6958 North 167 192 15,100  Level Houston Center
01:32PM 30.9953 -96.6947 North 167 192 15,100  Level Houston Center
01:33PM 31.0503 -96.6922 North 166 191 15,100  Level Houston Center
01:34PM 31.0967 -96.6908 North 166 191 15,100  Level Houston Center
01:35PM 31.1433 -96.6892 North 166 191 15,100  Level Houston Center
01:36PM 31.1900 -96.6864 North 166 191 15,100  Level Houston Center
01:37PM 31.2367 -96.6858 North 167 192 15,100  Level Houston Center
01:38PM 31.2786 -96.6661 22° Northeast 167 192 15,100  Level Houston Center
01:39PM 31.3278 -96.6389 25° Northeast 165 190 15,100  Level Houston Center
01:40PM 31.3694 -96.6186 23° Northeast 165 190 15,100  Level Houston Center
01:41PM 31.3953 -96.6067 22° Northeast 166 191 15,100  Level Fort Worth Center
01:42PM 31.4375 -96.5853 23° Northeast 166 191 15,100  Level Fort Worth Center
01:43PM 31.4794 -96.5661 21° North 163 188 15,100  Level Fort Worth Center
01:44PM 31.5217 -96.5442 24° Northeast 165 190 15,100  Level Fort Worth Center
01:45PM 31.5719 -96.5197 22° Northeast 164 189 15,100  Level Fort Worth Center
01:46PM 31.6139 -96.4992 23° Northeast 164 189 15,100  Level Fort Worth Center
01:47PM 31.6572 -96.4778 23° Northeast 167 192 15,100  Level Fort Worth Center
01:48PM 31.7008 -96.4550 24° Northeast 165 190 15,100  Level Fort Worth Center
01:49PM 31.7439 -96.4342 22° Northeast 166 191 15,100  Level Fort Worth Center
01:50PM 31.7869 -96.4139 22° Northeast 166 191 15,100  Level Fort Worth Center
01:51PM 31.8286 -96.3914 25° Northeast 165 190 15,100  Level Fort Worth Center
01:52PM 31.8803 -96.3678 21° North 166 191 15,100  Level Fort Worth Center
01:53PM 31.9219 -96.3461 24° Northeast 166 191 15,100  Level Fort Worth Center
01:55PM 31.9639 -96.3253 23° Northeast 166 191 15,100  Level Fort Worth Center
01:56PM 32.0075 -96.3042 22° Northeast 165 190 15,100  Level Fort Worth Center
01:57PM 32.0500 -96.2828 23° Northeast 167 192 15,100  Level Fort Worth Center
01:58PM 32.1006 -96.2572 23° Northeast 165 190 15,100  Level Fort Worth Center
01:59PM 32.1439 -96.2375 21° North 166 191 15,100  Level Fort Worth Center
02:00PM 32.1864 -96.2156 24° Northeast 166 191 15,100 -60 Level Fort Worth Center
02:01PM 32.2344 -96.2142 North 165 190 15,000 -60 Descending Fort Worth Center
02:02PM 32.2847 -96.2206 354° North 167 192 15,000  Level Fort Worth Center
02:03PM 32.3317 -96.2211 359° North 169 194 15,000  Level Fort Worth Center
02:04PM 32.3825 -96.2211 360° North 170 196 15,000  Level Fort Worth Center
02:05PM 32.4292 -96.2211 360° North 169 194 15,000  Level Fort Worth Center
02:06PM 32.4792 -96.2211 360° North 169 194 15,000  Level Fort Worth Center
02:07PM 32.5258 -96.2214 360° North 169 194 15,000  Level Fort Worth Center
02:08PM 32.5767 -96.2222 359° North 169 194 15,000  Level Fort Worth Center
02:09PM 32.6242 -96.2233 359° North 169 194 15,000  Level Fort Worth Center
02:10PM 32.6750 -96.2242 359° North 169 194 15,000  Level Fort Worth Center
02:11PM 32.7219 -96.2242 360° North 169 194 15,000  Level Fort Worth Center
02:12PM 32.7717 -96.2256 359° North 166 191 15,000  Level Fort Worth Center
02:13PM 32.8192 -96.2264 359° North 169 194 15,000  Level Fort Worth Center
02:14PM 32.8669 -96.2264 360° North 170 196 15,000  Level Fort Worth Center
02:15PM 32.9203 -96.2261 360° North 170 196 15,000  Level Fort Worth Center
02:16PM 32.9675 -96.2281 358° North 171 197 15,000  Level Fort Worth Center
02:17PM 33.0186 -96.2283 360° North 171 197 15,000  Level Fort Worth Center
02:18PM 33.0661 -96.2281 360° North 171 197 15,000  Level Fort Worth Center
02:19PM 33.1175 -96.2289 359° North 171 197 15,000  Level Fort Worth Center
02:20PM 33.1650 -96.2294 359° North 171 197 15,000  Level Fort Worth Center
02:21PM 33.2161 -96.2308 359° North 171 197 15,000  Level Fort Worth Center
02:22PM 33.2639 -96.2300 North 171 197 15,000  Level Fort Worth Center
02:23PM 33.3156 -96.2314 359° North 172 198 15,000  Level Fort Worth Center
02:25PM 33.3639 -96.2311 360° North 172 198 15,000  Level Fort Worth Center
02:26PM 33.4161 -96.2319 359° North 172 198 15,000  Level Fort Worth Center
02:27PM 33.4644 -96.2333 359° North 173 199 15,000  Level Fort Worth Center
02:28PM 33.5153 -96.2328 North 173 199 15,000  Level Fort Worth Center
02:29PM 33.5631 -96.2342 359° North 171 197 15,000  Level Fort Worth Center
02:30PM 33.6111 -96.2375 357° North 171 197 15,000  Level Fort Worth Center
02:31PM 33.6619 -96.2417 356° North 171 197 15,000  Level Fort Worth Center
02:32PM 33.7103 -96.2450 357° North 172 198 15,000  Level Fort Worth Center
02:33PM 33.7614 -96.2492 356° North 171 197 15,000  Level Fort Worth Center
02:34PM 33.8089 -96.2536 356° North 171 197 15,000  Level Fort Worth Center
02:35PM 33.8542 -96.2589 354° North 171 197 15,000  Level Fort Worth Center
02:36PM 33.9011 -96.2622 357° North 170 196 15,000  Level Fort Worth Center
02:37PM 33.9478 -96.2672 355° North 170 196 15,000  Level Fort Worth Center
02:38PM 34.0047 -96.2706 357° North 170 196 15,000  Level Fort Worth Center
02:39PM 34.0522 -96.2750 356° North 170 196 15,000  Level Fort Worth Center
02:40PM 34.1017 -96.2800 355° North 170 196 15,100  Climbing Fort Worth Center
02:41PM 34.1483 -96.2825 357° North 170 196 15,100  Level Fort Worth Center
02:42PM 34.1967 -96.2858 357° North 171 197 15,100  Level Fort Worth Center
02:43PM 34.2425 -96.2900 356° North 169 194 15,100  Level Fort Worth Center
02:44PM 34.2883 -96.2933 357° North 168 193 15,100  Level Fort Worth Center
02:45PM 34.3347 -96.2983 355° North 167 192 15,100  Level Fort Worth Center
02:46PM 34.3914 -96.3017 357° North 168 193 15,100  Level Fort Worth Center
02:47PM 34.4381 -96.3058 356° North 169 194 15,100  Level Fort Worth Center
02:48PM 34.4856 -96.3075 358° North 171 197 15,100  Level Fort Worth Center
02:49PM 34.5328 -96.3128 355° North 171 197 15,100  Level Fort Worth Center
02:50PM 34.5789 -96.3169 356° North 170 196 15,100  Level Fort Worth Center
02:51PM 34.6256 -96.3208 356° North 169 194 15,100  Level Fort Worth Center
02:52PM 34.6806 -96.3256 356° North 166 191 15,100  Level Fort Worth Center
02:53PM 34.7278 -96.3306 355° North 166 191 15,100  Level Fort Worth Center
02:54PM 34.7739 -96.3328 358° North 166 191 15,100  Level Fort Worth Center
02:56PM 34.8203 -96.3372 356° North 166 191 15,100  Level Fort Worth Center
02:57PM 34.8661 -96.3406 357° North 166 191 15,100  Level Fort Worth Center
02:58PM 34.9225 -96.3464 355° North 168 193 15,100  Level Fort Worth Center
02:59PM 34.9678 -96.3489 357° North 167 192 15,100 -180 Level Fort Worth Center
03:07PM 35.3567 -96.3817 357° North 182 209 13,700 -240 Descending Fort Worth Center
03:08PM 35.4086 -96.3867 356° North 184 212 12,900 -780 Descending Fort Worth Center
03:09PM 35.4597 -96.3917 355° North 184 212 12,100 -960 Descending Fort Worth Center
03:10PM 35.5228 -96.3969 356° North 185 213 11,000 -1,020 Descending Fort Worth Center
03:11PM 35.5747 -96.4003 357° North 187 215 10,100 -960 Descending Fort Worth Center
03:12PM 35.6244 -96.4050 356° North 185 213 9,100 -780 Descending Fort Worth Center
03:13PM 35.6442 -96.4067 356° North 187 215 8,900 -780 Descending Kansas City Center
03:14PM 35.7033 -96.4119 356° North 183 211 7,900 -900 Descending Kansas City Center
03:15PM 35.7508 -96.4175 355° North 177 204 7,100 -840 Descending Kansas City Center
03:16PM 35.8003 -96.4217 356° North 177 204 6,200 -840 Descending Kansas City Center
03:17PM 35.8489 -96.4247 357° North 177 204 5,400 -780 Descending Kansas City Center
03:18PM 35.8978 -96.4314 354° North 177 204 4,600 -600 Descending Kansas City Center
03:19PM 35.9450 -96.4344 357° North 175 201 4,200 -480 Descending Kansas City Center
03:20PM 35.9978 -96.4381 357° North 166 191 3,600 -480 Descending Kansas City Center
03:21PM 36.0433 -96.4422 356° North 165 190 3,300 -240 Descending Kansas City Center
03:22PM 36.0806 -96.4461 355° North 157 181 3,200 -240 Descending Kansas City Center
03:22PM 36.1056 -96.4489 355° North 148 170 3,000 -360 Descending Kansas City Center
03:23PM 36.1372 -96.4500 358° North 145 167 2,800 -240 Descending Kansas City Center
03:24PM 36.1692 -96.4528 356° North 146 168 2,700 -180 Descending Kansas City Center
03:25PM 36.2064 -96.4519 North 138 159 2,500 -240 Descending Kansas City Center
03:26PM 36.2431 -96.4494 North 137 158 2,200 -420 Descending Kansas City Center
03:27PM 36.2775 -96.4483 North 125 144 1,700 -480 Descending Kansas City Center
03:28PM 36.2986 -96.4508 355° North 110 127 1,400 -120 Descending Kansas City Center
03:29PM 36.3119 -96.4881 294° West 125 144 1,500 60 Climbing Kansas City Center